Time;durP1;ratioP1;P1;durP2;ratioP2;P2;SDS_P1;SDS_P2;PMS_P1;PMS_P2;Temp;Humidity;BMP_temperature;BMP_pressure;BME280_temperature;BME280_humidity;BME280_pressure;Samples;Min_cycle;Max_cycle;Signal;HPM_P1;HPM_P2
2023/09/02 00:00:10;;;;;;;7.13;5.65;;;14.30;99.90;;;;;;5028808;28;22043;-57
2023/09/02 00:02:36;;;;;;;8.90;5.90;;;14.30;99.90;;;;;;5037955;28;20116;-56
2023/09/02 00:05:01;;;;;;;9.90;6.68;;;14.20;99.90;;;;;;5039282;28;20522;-59
2023/09/02 00:07:27;;;;;;;7.32;5.95;;;14.20;99.90;;;;;;5028037;28;20040;-58
2023/09/02 00:09:53;;;;;;;7.95;6.78;;;14.20;99.90;;;;;;5042820;28;20404;-58
2023/09/02 00:12:18;;;;;;;9.65;6.88;;;14.20;99.90;;;;;;5027211;28;20074;-58
2023/09/02 00:14:44;;;;;;;6.07;5.35;;;14.20;99.90;;;;;;5027661;28;20472;-57
2023/09/02 00:17:11;;;;;;;8.55;6.22;;;14.20;99.90;;;;;;5044259;28;20056;-55
2023/09/02 00:19:41;;;;;;;7.07;5.15;;;14.20;99.90;;;;;;5047211;28;20044;-57
2023/09/02 00:22:07;;;;;;;8.32;6.32;;;14.20;99.90;;;;;;5044128;28;20041;-57
2023/09/02 00:24:33;;;;;;;7.25;6.38;;;14.10;99.90;;;;;;5041301;28;20406;-58
2023/09/02 00:26:59;;;;;;;6.43;5.35;;;14.10;99.90;;;;;;5022333;28;20037;-54
2023/09/02 00:29:25;;;;;;;9.50;6.25;;;14.00;99.90;;;;;;5057444;28;20381;-57
2023/09/02 00:31:50;;;;;;;9.23;6.15;;;14.00;99.90;;;;;;5023622;28;20056;-58
2023/09/02 00:34:16;;;;;;;7.53;6.13;;;14.00;99.90;;;;;;5028241;28;20550;-59
2023/09/02 00:36:42;;;;;;;12.48;6.78;;;14.00;99.90;;;;;;5042169;28;20051;-57
2023/09/02 00:39:07;;;;;;;9.88;6.72;;;14.00;99.90;;;;;;5040532;28;22768;-54
2023/09/02 00:41:47;;;;;;;7.18;5.78;;;13.90;99.90;;;;;;5026463;28;20040;-58
2023/09/02 00:44:12;;;;;;;7.97;5.93;;;13.90;99.90;;;;;;5021104;28;20110;-58
2023/09/02 00:46:38;;;;;;;9.60;6.45;;;13.90;99.90;;;;;;5028665;28;20040;-55
2023/09/02 00:49:05;;;;;;;8.20;5.90;;;13.90;99.90;;;;;;5027192;28;20489;-58
2023/09/02 00:51:30;;;;;;;8.25;5.32;;;13.80;99.90;;;;;;5027219;28;20040;-57
2023/09/02 00:53:56;;;;;;;7.47;6.00;;;13.80;99.90;;;;;;5060776;28;20483;-58
2023/09/02 00:56:24;;;;;;;7.82;6.60;;;13.80;99.90;;;;;;5038374;28;20476;-57
2023/09/02 00:58:51;;;;;;;8.40;6.10;;;13.70;99.90;;;;;;5037122;28;20079;-58
2023/09/02 01:01:18;;;;;;;7.53;6.00;;;13.70;99.90;;;;;;5060321;28;20047;-58
2023/09/02 01:03:44;;;;;;;10.63;5.88;;;13.70;99.90;;;;;;5046923;28;20492;-58
2023/09/02 01:06:09;;;;;;;8.65;6.82;;;13.70;99.90;;;;;;5043052;28;20395;-56
2023/09/02 01:08:36;;;;;;;8.13;7.10;;;13.70;99.90;;;;;;5039368;28;20058;-57
2023/09/02 01:11:02;;;;;;;7.07;6.25;;;13.70;99.90;;;;;;5039981;28;20127;-57
2023/09/02 01:13:29;;;;;;;6.70;6.00;;;13.70;99.90;;;;;;5058727;28;20086;-56
2023/09/02 01:15:55;;;;;;;12.48;6.68;;;13.70;99.90;;;;;;5041588;28;20101;-57
2023/09/02 01:18:24;;;;;;;8.88;6.45;;;13.70;99.90;;;;;;5041704;28;20470;-58
2023/09/02 01:21:07;;;;;;;9.68;6.68;;;13.70;99.90;;;;;;5048445;28;20110;-57
2023/09/02 01:23:45;;;;;;;8.60;6.53;;;13.60;99.90;;;;;;5029350;28;20045;-58
2023/09/02 01:26:35;;;;;;;7.63;5.90;;;13.60;99.90;;;;;;5045970;28;20071;-57
2023/09/02 01:29:06;;;;;;;8.48;6.97;;;13.60;99.90;;;;;;5039903;28;20041;-57
2023/09/02 01:31:33;;;;;;;8.30;6.63;;;13.50;99.90;;;;;;5042880;28;20056;-57
2023/09/02 01:34:00;;;;;;;11.38;6.68;;;13.50;99.90;;;;;;5026135;28;20538;-58
2023/09/02 01:36:28;;;;;;;6.97;5.60;;;13.50;99.90;;;;;;5045270;28;20079;-58
2023/09/02 01:38:55;;;;;;;7.70;6.40;;;13.50;99.90;;;;;;5046354;28;20049;-57
2023/09/02 01:41:23;;;;;;;7.85;6.57;;;13.50;99.90;;;;;;5042496;28;20047;-57
2023/09/02 01:43:50;;;;;;;8.90;7.05;;;13.50;99.90;;;;;;5038125;28;20044;-57
2023/09/02 01:46:18;;;;;;;9.30;6.45;;;13.50;99.90;;;;;;5058834;28;20048;-57
2023/09/02 01:48:45;;;;;;;9.32;8.02;;;13.50;99.90;;;;;;5043027;28;20118;-58
2023/09/02 01:51:12;;;;;;;10.57;7.70;;;13.50;99.90;;;;;;5025912;28;20105;-58
2023/09/02 01:53:37;;;;;;;10.02;7.10;;;13.50;99.90;;;;;;5030171;28;20292;-58
2023/09/02 01:56:03;;;;;;;10.75;7.13;;;13.50;99.90;;;;;;5049118;28;20667;-57
2023/09/02 01:58:29;;;;;;;8.27;6.70;;;13.50;99.90;;;;;;5049041;28;20037;-57
2023/09/02 02:00:55;;;;;;;8.60;6.22;;;13.50;99.90;;;;;;5042917;28;20040;-58
2023/09/02 02:03:28;;;;;;;10.00;7.57;;;13.50;99.90;;;;;;5046191;28;20041;-57
2023/09/02 02:05:54;;;;;;;9.68;7.43;;;13.40;99.90;;;;;;5047473;28;20044;-58
2023/09/02 02:08:35;;;;;;;7.78;6.30;;;13.40;99.90;;;;;;5041604;28;20064;-58
2023/09/02 02:11:03;;;;;;;11.13;7.38;;;13.40;99.90;;;;;;5047689;28;20054;-58
2023/09/02 02:13:29;;;;;;;8.30;6.28;;;13.40;99.90;;;;;;5029353;28;20044;-58
2023/09/02 02:15:55;;;;;;;9.27;6.60;;;13.30;99.90;;;;;;5043630;28;20041;-58
2023/09/02 02:18:20;;;;;;;10.15;6.75;;;13.30;99.90;;;;;;5044254;28;20127;-58
2023/09/02 02:21:07;;;;;;;9.45;7.05;;;13.30;99.90;;;;;;5062534;28;20048;-57
2023/09/02 02:23:33;;;;;;;8.13;6.55;;;13.30;99.90;;;;;;5044573;28;20062;-57
2023/09/02 02:26:04;;;;;;;8.85;6.13;;;13.30;99.90;;;;;;5046323;28;20036;-56
2023/09/02 02:28:36;;;;;;;9.45;7.47;;;13.20;99.90;;;;;;5040891;28;20048;-57
2023/09/02 02:31:02;;;;;;;10.00;7.43;;;13.30;99.90;;;;;;5044165;28;20338;-58
2023/09/02 02:33:28;;;;;;;8.07;7.10;;;13.30;99.90;;;;;;5026535;28;20051;-56
2023/09/02 02:35:54;;;;;;;9.43;7.47;;;13.30;99.90;;;;;;5027017;28;20045;-58
2023/09/02 02:38:20;;;;;;;9.40;7.00;;;13.30;99.90;;;;;;5043717;28;20051;-58
2023/09/02 02:40:46;;;;;;;7.60;6.43;;;13.30;99.90;;;;;;5045839;28;20045;-58
2023/09/02 02:43:11;;;;;;;10.98;8.02;;;13.30;99.90;;;;;;5024837;28;20068;-56
2023/09/02 02:45:37;;;;;;;10.27;7.72;;;13.30;99.90;;;;;;5063743;28;20405;-58
2023/09/02 02:48:03;;;;;;;7.93;6.63;;;13.30;99.90;;;;;;5045319;28;20032;-58
2023/09/02 02:50:29;;;;;;;9.80;7.18;;;13.30;99.90;;;;;;5029668;28;20542;-58
2023/09/02 02:52:55;;;;;;;9.52;7.85;;;13.20;99.90;;;;;;5044573;28;20040;-58
2023/09/02 02:55:20;;;;;;;11.18;7.57;;;13.30;99.90;;;;;;5041018;28;20329;-57
2023/09/02 02:57:47;;;;;;;10.57;7.35;;;13.20;99.90;;;;;;5042494;28;20554;-57
2023/09/02 03:00:13;;;;;;;8.98;7.13;;;13.20;99.90;;;;;;5040769;28;20075;-56
2023/09/02 03:02:39;;;;;;;13.20;7.13;;;13.10;99.90;;;;;;5024444;28;20040;-58
2023/09/02 03:05:05;;;;;;;8.98;7.18;;;13.10;99.90;;;;;;5063632;28;20407;-57
2023/09/02 03:07:31;;;;;;;11.10;7.43;;;13.10;99.90;;;;;;5041911;28;20040;-57
2023/09/02 03:09:57;;;;;;;8.63;6.75;;;13.10;99.90;;;;;;5025679;28;20040;-58
2023/09/02 03:12:22;;;;;;;9.73;7.53;;;13.10;99.90;;;;;;5044900;28;20048;-58
2023/09/02 03:14:49;;;;;;;7.53;6.57;;;13.00;99.90;;;;;;5044348;28;20480;-58
2023/09/02 03:17:20;;;;;;;10.13;7.60;;;13.10;99.90;;;;;;5040636;28;20128;-57
2023/09/02 03:19:48;;;;;;;9.10;5.97;;;13.10;99.90;;;;;;5043246;28;20783;-58
2023/09/02 03:22:14;;;;;;;8.65;6.95;;;13.10;99.90;;;;;;5041373;28;20123;-58
2023/09/02 03:24:41;;;;;;;9.38;7.80;;;13.10;99.90;;;;;;5040853;28;20035;-58
2023/09/02 03:27:07;;;;;;;9.15;7.65;;;13.00;99.90;;;;;;5028741;28;20036;-58
2023/09/02 03:29:33;;;;;;;10.50;6.97;;;13.10;99.90;;;;;;5025032;28;20087;-59
2023/09/02 03:31:59;;;;;;;9.73;6.97;;;13.10;99.90;;;;;;5034533;28;20045;-58
2023/09/02 03:34:25;;;;;;;10.65;8.80;;;13.10;99.90;;;;;;5024860;28;20037;-58
2023/09/02 03:36:51;;;;;;;9.57;7.30;;;13.10;99.90;;;;;;5043188;28;20032;-58
2023/09/02 03:39:16;;;;;;;9.80;8.38;;;13.20;99.90;;;;;;5042505;28;20040;-59
2023/09/02 03:41:44;;;;;;;8.40;6.57;;;13.20;99.90;;;;;;5028262;28;20119;-57
2023/09/02 03:44:10;;;;;;;9.60;8.25;;;13.20;99.90;;;;;;5043444;28;20123;-58
2023/09/02 03:46:36;;;;;;;14.32;7.28;;;13.20;99.90;;;;;;5059215;28;20116;-57
2023/09/02 03:49:02;;;;;;;9.43;6.90;;;13.20;99.90;;;;;;5042216;28;20045;-58
2023/09/02 03:51:28;;;;;;;9.00;7.30;;;13.20;99.90;;;;;;5025782;28;20051;-58
2023/09/02 03:53:54;;;;;;;9.93;7.90;;;13.20;99.90;;;;;;5044475;28;20044;-58
2023/09/02 03:56:20;;;;;;;8.15;6.82;;;13.20;99.90;;;;;;5045219;28;20365;-58
2023/09/02 03:58:45;;;;;;;10.70;8.07;;;13.20;99.90;;;;;;5039908;28;20418;-58
2023/09/02 04:01:12;;;;;;;9.13;7.43;;;13.20;99.90;;;;;;5042036;28;20196;-58
2023/09/02 04:03:38;;;;;;;11.18;8.55;;;13.20;99.90;;;;;;5023803;28;20055;-58
2023/09/02 04:06:04;;;;;;;12.57;9.32;;;13.20;99.90;;;;;;5065687;28;20731;-58
2023/09/02 04:08:36;;;;;;;11.13;8.52;;;13.30;99.90;;;;;;5040066;28;20040;-58
2023/09/02 04:11:02;;;;;;;10.18;8.18;;;13.20;99.90;;;;;;5043424;28;20045;-58
2023/09/02 04:13:29;;;;;;;8.48;7.57;;;13.30;99.90;;;;;;5041920;28;20439;-59
2023/09/02 04:15:56;;;;;;;14.95;7.63;;;13.20;99.90;;;;;;5060689;28;20059;-59
2023/09/02 04:18:22;;;;;;;9.93;8.20;;;13.20;99.90;;;;;;5025093;28;20565;-58
2023/09/02 04:20:48;;;;;;;9.90;8.15;;;13.10;99.90;;;;;;5043225;28;20131;-58
2023/09/02 04:23:14;;;;;;;10.35;8.68;;;13.10;99.90;;;;;;5043114;28;20120;-58
2023/09/02 04:25:46;;;;;;;9.73;7.63;;;13.10;99.90;;;;;;5046602;28;20090;-57
2023/09/02 04:28:12;;;;;;;11.60;8.38;;;13.20;99.90;;;;;;5059562;28;20063;-58
2023/09/02 04:30:38;;;;;;;9.73;7.75;;;13.10;99.90;;;;;;5039136;28;20389;-58
2023/09/02 04:33:04;;;;;;;13.25;9.60;;;13.10;99.90;;;;;;5024360;28;20041;-58
2023/09/02 04:35:38;;;;;;;10.13;8.25;;;13.10;99.90;;;;;;5025383;28;20047;-58
2023/09/02 04:38:04;;;;;;;;;;;13.10;99.90;;;;;;5023616;28;20056;-58
2023/09/02 04:40:30;;;;;;;12.63;9.27;;;13.10;99.90;;;;;;5043010;28;19923;-59
2023/09/02 04:42:56;;;;;;;10.20;8.48;;;13.00;99.90;;;;;;5024091;28;20383;-57
2023/09/02 04:45:22;;;;;;;11.00;9.05;;;13.00;99.90;;;;;;5043803;28;20041;-58
2023/09/02 04:48:05;;;;;;;13.23;9.52;;;13.00;99.90;;;;;;5028671;28;20041;-57
2023/09/02 04:50:31;;;;;;;8.77;7.05;;;13.00;99.90;;;;;;5057420;28;20040;-59
2023/09/02 04:52:58;;;;;;;11.07;8.30;;;13.00;99.90;;;;;;5044240;28;20090;-58
2023/09/02 04:55:27;;;;;;;11.25;8.40;;;13.00;99.90;;;;;;5043334;28;20060;-57
2023/09/02 04:57:54;;;;;;;8.57;7.15;;;13.00;99.90;;;;;;5043452;28;20541;-59
2023/09/02 05:00:22;;;;;;;10.05;7.32;;;13.00;99.90;;;;;;5030880;28;20044;-58
2023/09/02 05:02:48;;;;;;;12.38;9.38;;;12.90;99.90;;;;;;5047112;28;20045;-58
2023/09/02 05:05:18;;;;;;;12.80;9.60;;;12.90;99.90;;;;;;5048833;28;20376;-58
2023/09/02 05:07:44;;;;;;;12.98;9.98;;;12.90;99.90;;;;;;5030310;28;20090;-58
2023/09/02 05:10:10;;;;;;;14.02;10.15;;;12.90;99.90;;;;;;5033324;28;20494;-58
2023/09/02 05:12:36;;;;;;;12.20;9.07;;;12.90;99.90;;;;;;5046402;28;20130;-58
2023/09/02 05:15:05;;;;;;;9.48;8.15;;;12.90;99.90;;;;;;5047149;28;20525;-58
2023/09/02 05:17:32;;;;;;;13.05;9.23;;;12.90;99.90;;;;;;5029970;28;20040;-58
2023/09/02 05:19:58;;;;;;;13.70;10.88;;;13.00;99.90;;;;;;5042617;28;20460;-58
2023/09/02 05:22:24;;;;;;;15.63;10.20;;;13.00;99.90;;;;;;5049987;28;20059;-58
2023/09/02 05:24:50;;;;;;;12.30;8.63;;;12.90;99.90;;;;;;5044748;28;20052;-57
2023/09/02 05:27:16;;;;;;;14.02;10.15;;;13.00;99.90;;;;;;5048690;28;20508;-58
2023/09/02 05:29:41;;;;;;;12.38;9.15;;;13.00;99.90;;;;;;5033457;28;20071;-60
2023/09/02 05:32:09;;;;;;;11.30;8.27;;;13.00;99.90;;;;;;5029882;28;20042;-58
2023/09/02 05:34:35;;;;;;;11.25;9.15;;;13.00;99.90;;;;;;5030238;28;20128;-58
2023/09/02 05:37:02;;;;;;;11.95;8.45;;;13.00;99.90;;;;;;5045899;28;20045;-58
2023/09/02 05:39:28;;;;;;;15.35;9.40;;;13.00;99.90;;;;;;5045874;28;20127;-58
2023/09/02 05:41:53;;;;;;;11.63;9.02;;;13.00;99.90;;;;;;5030927;28;20127;-58
2023/09/02 05:44:19;;;;;;;11.35;9.48;;;13.00;99.90;;;;;;5050461;28;20045;-58
2023/09/02 05:46:46;;;;;;;11.55;8.80;;;13.00;99.90;;;;;;5053819;28;20051;-58
2023/09/02 05:49:14;;;;;;;11.07;8.60;;;13.00;99.90;;;;;;5029645;28;20075;-59
2023/09/02 05:51:40;;;;;;;12.43;9.90;;;13.10;99.90;;;;;;5062739;28;20048;-58
2023/09/02 05:54:08;;;;;;;13.45;10.80;;;13.10;99.90;;;;;;5054098;28;20090;-57
2023/09/02 05:56:34;;;;;;;11.02;9.35;;;13.20;99.90;;;;;;5045223;28;20405;-57
2023/09/02 05:59:00;;;;;;;13.77;10.80;;;13.20;99.90;;;;;;5047677;28;20045;-56
2023/09/02 06:01:26;;;;;;;10.38;7.90;;;13.20;99.90;;;;;;5046498;28;20060;-59
2023/09/02 06:03:52;;;;;;;12.52;8.88;;;13.30;99.90;;;;;;5031617;28;20053;-57
2023/09/02 06:06:17;;;;;;;11.88;9.48;;;13.40;99.90;;;;;;5066506;28;20043;-54
2023/09/02 06:08:43;;;;;;;11.77;9.88;;;13.50;99.90;;;;;;5028196;28;20068;-57
2023/09/02 06:11:09;;;;;;;14.43;8.90;;;13.60;99.90;;;;;;5046146;28;20041;-56
2023/09/02 06:13:35;;;;;;;12.55;9.52;;;13.70;99.90;;;;;;5048425;28;20583;-57
2023/09/02 06:16:03;;;;;;;13.63;9.48;;;13.70;99.90;;;;;;5047509;28;20040;-58
2023/09/02 06:18:30;;;;;;;13.48;10.30;;;13.80;99.90;;;;;;5045865;28;20040;-57
2023/09/02 06:20:56;;;;;;;17.27;11.38;;;13.90;99.90;;;;;;5045551;28;20450;-58
2023/09/02 06:23:24;;;;;;;12.55;9.82;;;14.00;99.90;;;;;;5027867;28;20090;-58
2023/09/02 06:26:00;;;;;;;13.00;10.15;;;14.10;99.90;;;;;;5043883;28;20550;-60
2023/09/02 06:28:26;;;;;;;17.65;11.07;;;14.20;99.90;;;;;;5011226;28;20087;-58
2023/09/02 06:30:53;;;;;;;14.38;9.50;;;14.30;99.90;;;;;;5046518;28;20048;-59
2023/09/02 06:33:23;;;;;;;14.20;10.85;;;14.40;99.90;;;;;;5046221;28;20499;-59
2023/09/02 06:35:50;;;;;;;15.15;11.05;;;14.50;99.90;;;;;;5046242;28;20040;-57
2023/09/02 06:38:16;;;;;;;14.55;10.25;;;14.60;99.90;;;;;;5044459;28;20044;-58
2023/09/02 06:40:42;;;;;;;13.00;9.40;;;14.70;99.90;;;;;;5031380;28;20128;-59
2023/09/02 06:43:08;;;;;;;12.52;10.02;;;14.80;99.90;;;;;;5029263;28;20067;-59
2023/09/02 06:45:33;;;;;;;11.55;9.48;;;14.90;99.90;;;;;;5043073;28;20079;-59
2023/09/02 06:47:59;;;;;;;15.93;11.23;;;15.00;99.90;;;;;;5043578;28;20484;-56
2023/09/02 06:50:27;;;;;;;19.83;10.73;;;15.10;99.90;;;;;;5059698;28;20043;-58
2023/09/02 06:52:53;;;;;;;12.95;10.18;;;15.10;99.90;;;;;;5045375;28;20051;-56
2023/09/02 06:55:19;;;;;;;12.68;9.73;;;15.30;99.90;;;;;;5014766;28;20036;-53
2023/09/02 06:57:45;;;;;;;15.82;11.38;;;15.40;99.90;;;;;;5025329;28;20044;-59
2023/09/02 07:00:12;;;;;;;15.80;12.13;;;15.50;99.90;;;;;;5034000;28;20119;-59
2023/09/02 07:02:42;;;;;;;16.58;11.57;;;15.60;99.90;;;;;;5041522;28;20526;-56
2023/09/02 07:05:08;;;;;;;15.20;11.80;;;15.70;99.90;;;;;;5039824;28;20044;-56
2023/09/02 07:07:36;;;;;;;13.77;10.65;;;15.80;99.90;;;;;;5024618;28;20049;-57
2023/09/02 07:10:04;;;;;;;15.32;11.68;;;15.80;99.90;;;;;;5044725;28;20089;-58
2023/09/02 07:12:29;;;;;;;14.68;11.50;;;15.90;99.90;;;;;;5014244;28;20102;-59
2023/09/02 07:14:58;;;;;;;13.73;11.63;;;16.00;99.90;;;;;;5043485;28;20072;-59
2023/09/02 07:17:26;;;;;;;12.40;9.38;;;16.20;99.90;;;;;;5042811;28;20538;-59
2023/09/02 07:19:51;;;;;;;18.13;10.63;;;16.30;99.90;;;;;;5061695;28;20226;-56
2023/09/02 07:22:17;;;;;;;12.90;10.13;;;16.40;99.90;;;;;;5062556;28;20036;-57
2023/09/02 07:24:44;;;;;;;16.52;10.63;;;16.50;99.90;;;;;;5025734;28;20048;-56
2023/09/02 07:27:10;;;;;;;13.80;10.55;;;16.60;99.90;;;;;;5066646;28;20330;-58
2023/09/02 07:29:35;;;;;;;12.70;9.95;;;16.70;99.90;;;;;;5041726;28;20460;-57
2023/09/02 07:32:01;;;;;;;12.13;10.20;;;16.70;99.90;;;;;;5041727;28;20047;-59
2023/09/02 07:34:27;;;;;;;18.63;10.55;;;16.90;99.90;;;;;;5023827;28;20033;-57
2023/09/02 07:36:52;;;;;;;12.75;11.00;;;16.90;99.90;;;;;;5044193;28;20499;-57
2023/09/02 07:39:19;;;;;;;11.32;10.07;;;17.00;99.90;;;;;;5040715;28;20343;-56
2023/09/02 07:41:46;;;;;;;13.43;9.50;;;17.10;99.90;;;;;;4994065;28;20086;-58
2023/09/02 07:44:12;;;;;;;15.65;9.88;;;17.20;99.90;;;;;;5059024;28;20036;-58
2023/09/02 07:46:38;;;;;;;11.70;8.63;;;17.30;99.90;;;;;;5029517;28;20127;-57
2023/09/02 07:49:04;;;;;;;11.90;8.48;;;17.40;99.90;;;;;;5028929;28;20036;-57
2023/09/02 07:51:30;;;;;;;11.57;7.88;;;17.60;99.90;;;;;;5049558;28;20049;-57
2023/09/02 07:53:55;;;;;;;10.45;8.00;;;17.70;99.90;;;;;;5044346;28;20041;-57
2023/09/02 07:56:22;;;;;;;11.40;8.18;;;17.80;99.90;;;;;;5042927;28;20439;-60
2023/09/02 07:58:49;;;;;;;9.68;8.10;;;17.80;99.90;;;;;;5044811;28;20063;-60
2023/09/02 08:01:15;;;;;;;10.40;8.07;;;17.90;99.90;;;;;;5009436;28;20315;-57
2023/09/02 08:03:41;;;;;;;11.07;8.30;;;18.00;99.90;;;;;;5044688;28;20044;-56
2023/09/02 08:06:08;;;;;;;10.40;7.18;;;18.10;99.90;;;;;;5055379;28;20454;-57
2023/09/02 08:08:36;;;;;;;11.43;7.10;;;18.10;99.90;;;;;;5048951;28;20044;-58
2023/09/02 08:11:04;;;;;;;8.40;6.55;;;18.20;99.90;;;;;;5018164;28;20040;-60
2023/09/02 08:13:30;;;;;;;9.65;6.80;;;18.30;99.90;;;;;;5029334;28;20052;-59
2023/09/02 08:15:56;;;;;;;11.27;6.80;;;18.40;99.90;;;;;;5043865;28;20572;-59
2023/09/02 08:18:23;;;;;;;10.85;6.20;;;18.50;99.90;;;;;;5044810;28;20068;-58
2023/09/02 08:20:48;;;;;;;8.68;5.95;;;18.50;99.90;;;;;;5048447;28;20527;-58
2023/09/02 08:23:14;;;;;;;9.90;5.70;;;18.60;99.90;;;;;;5042147;28;20044;-57
2023/09/02 08:25:40;;;;;;;10.25;5.78;;;18.70;99.90;;;;;;5030606;28;20035;-59
2023/09/02 08:28:05;;;;;;;9.60;5.93;;;18.80;99.90;;;;;;5048058;28;20044;-58
2023/09/02 08:30:31;;;;;;;10.10;6.45;;;18.80;99.90;;;;;;5066314;28;20278;-59
2023/09/02 08:32:57;;;;;;;9.30;5.97;;;18.90;99.90;;;;;;5028164;28;20080;-58
2023/09/02 08:35:23;;;;;;;8.32;5.53;;;19.00;99.90;;;;;;5027090;28;20028;-58
2023/09/02 08:37:49;;;;;;;8.65;5.35;;;19.00;99.90;;;;;;5040157;28;20036;-59
2023/09/02 08:40:15;;;;;;;7.35;4.95;;;19.20;99.90;;;;;;5025463;28;20037;-59
2023/09/02 08:42:41;;;;;;;7.45;4.43;;;19.30;99.90;;;;;;5030721;28;20044;-59
2023/09/02 08:45:11;;;;;;;6.53;4.72;;;19.40;99.90;;;;;;5027712;28;20041;-58
2023/09/02 08:47:43;;;;;;;5.03;4.05;;;19.40;99.90;;;;;;5047072;28;20047;-58
2023/09/02 08:50:09;;;;;;;6.72;4.53;;;19.50;99.90;;;;;;5027329;28;20040;-55
2023/09/02 08:52:36;;;;;;;6.25;4.13;;;19.60;99.90;;;;;;5047398;28;20080;-59
2023/09/02 08:55:03;;;;;;;6.47;5.00;;;19.70;99.90;;;;;;5046041;28;20557;-60
2023/09/02 08:57:29;;;;;;;9.90;5.70;;;19.80;99.90;;;;;;5029825;28;20040;-59
2023/09/02 08:59:55;;;;;;;10.10;5.60;;;19.80;99.90;;;;;;5044804;28;20045;-60
2023/09/02 09:02:21;;;;;;;7.65;4.90;;;19.80;99.90;;;;;;5029531;28;20120;-59
2023/09/02 09:04:48;;;;;;;6.93;5.38;;;19.90;99.90;;;;;;5008755;28;20269;-60
2023/09/02 09:07:16;;;;;;;7.53;4.90;;;20.00;99.90;;;;;;5059424;28;20094;-60
2023/09/02 09:09:43;;;;;;;7.78;4.95;;;20.10;99.90;;;;;;5047980;28;20037;-60
2023/09/02 09:12:11;;;;;;;9.48;4.75;;;20.20;99.90;;;;;;5024367;28;20418;-60
2023/09/02 09:14:40;;;;;;;8.00;4.60;;;20.30;99.90;;;;;;5060158;28;20080;-60
2023/09/02 09:17:07;;;;;;;10.73;4.82;;;20.30;99.90;;;;;;5036100;28;20040;-60
2023/09/02 09:19:34;;;;;;;8.60;5.10;;;20.40;99.90;;;;;;5060923;28;20039;-58
2023/09/02 09:22:02;;;;;;;7.80;4.25;;;20.50;99.90;;;;;;5018165;28;20033;-59
2023/09/02 09:24:29;;;;;;;5.72;4.55;;;20.60;99.90;;;;;;5047346;28;20045;-58
2023/09/02 09:26:56;;;;;;;6.63;4.57;;;20.60;99.90;;;;;;5043271;28;20388;-59
2023/09/02 09:29:21;;;;;;;6.53;4.55;;;20.60;99.90;;;;;;5061400;28;20294;-58
2023/09/02 09:31:49;;;;;;;7.97;5.03;;;20.60;99.90;;;;;;5050099;28;20057;-59
2023/09/02 09:34:16;;;;;;;7.93;4.60;;;20.80;99.90;;;;;;5027783;28;20470;-59
2023/09/02 09:36:43;;;;;;;7.93;4.28;;;20.90;99.90;;;;;;5041000;28;20057;-59
2023/09/02 09:39:09;;;;;;;7.53;4.95;;;21.00;99.90;;;;;;5068029;28;20036;-58
2023/09/02 09:41:43;;;;;;;7.55;4.70;;;21.10;99.90;;;;;;5050684;28;20040;-58
2023/09/02 09:44:17;;;;;;;8.35;4.82;;;21.20;99.90;;;;;;5040289;28;20518;-59
2023/09/02 09:46:42;;;;;;;8.80;4.93;;;21.30;99.90;;;;;;5046586;28;20044;-60
2023/09/02 09:49:20;;;;;;;11.27;5.07;;;21.40;99.90;;;;;;5045520;28;20044;-59
2023/09/02 09:51:46;;;;;;;7.88;4.82;;;21.40;99.90;;;;;;5059041;28;20116;-59
2023/09/02 09:54:12;;;;;;;9.63;5.30;;;21.30;99.90;;;;;;5048734;28;20054;-59
2023/09/02 09:56:45;;;;;;;8.63;5.72;;;21.20;99.90;;;;;;5034140;28;20499;-60
2023/09/02 09:59:10;;;;;;;6.25;4.85;;;21.30;99.90;;;;;;5035585;28;20043;-59
2023/09/02 10:01:37;;;;;;;6.75;4.95;;;21.50;99.90;;;;;;5042769;28;20037;-59
2023/09/02 10:04:08;;;;;;;7.20;5.07;;;21.50;99.90;;;;;;5042141;28;20059;-59
2023/09/02 10:06:40;;;;;;;7.95;5.30;;;21.60;99.90;;;;;;5042036;28;20044;-59
2023/09/02 10:09:06;;;;;;;7.40;5.35;;;21.70;99.90;;;;;;5045986;28;20033;-59
2023/09/02 10:11:31;;;;;;;8.73;4.97;;;21.80;99.90;;;;;;5042744;28;20406;-59
2023/09/02 10:13:59;;;;;;;7.10;5.32;;;21.90;99.90;;;;;;5059034;28;20043;-58
2023/09/02 10:16:25;;;;;;;12.50;5.68;;;22.00;99.90;;;;;;5041306;28;20033;-60
2023/09/02 10:18:51;;;;;;;8.30;5.32;;;21.90;99.90;;;;;;5048684;28;20530;-60
2023/09/02 10:21:19;;;;;;;6.80;4.55;;;22.00;99.90;;;;;;5062892;28;20044;-60
2023/09/02 10:23:52;;;;;;;7.50;4.93;;;22.20;99.90;;;;;;5045519;28;20108;-60
2023/09/02 10:26:24;;;;;;;8.70;5.05;;;22.40;99.90;;;;;;5040224;28;20048;-59
2023/09/02 10:28:50;;;;;;;8.82;5.28;;;22.50;99.90;;;;;;5046405;28;20047;-59
2023/09/02 10:31:21;;;;;;;5.70;4.47;;;22.40;99.90;;;;;;5015377;28;20056;-59
2023/09/02 10:34:05;;;;;;;8.73;5.00;;;22.60;99.90;;;;;;5055995;28;20067;-60
2023/09/02 10:36:33;;;;;;;;;;;22.90;99.90;;;;;;5048005;28;20492;-60
2023/09/02 10:39:03;;;;;;;7.95;4.90;;;23.00;99.90;;;;;;5048490;28;20010;-60
2023/09/02 10:41:30;;;;;;;8.48;5.03;;;22.90;99.90;;;;;;5050105;28;20120;-60
2023/09/02 10:43:56;;;;;;;9.18;5.45;;;23.10;99.90;;;;;;5045247;28;20115;-57
2023/09/02 10:46:24;;;;;;;7.78;4.50;;;23.10;99.90;;;;;;5042427;28;20068;-60
2023/09/02 10:48:50;;;;;;;8.80;5.47;;;23.10;99.90;;;;;;5045234;28;20442;-58
2023/09/02 10:51:16;;;;;;;7.18;5.07;;;23.10;99.90;;;;;;5040970;28;20076;-59
2023/09/02 10:53:48;;;;;;;9.30;5.40;;;23.00;99.60;;;;;;5064805;28;20066;-59
2023/09/02 10:56:34;;;;;;;7.43;4.90;;;22.90;99.70;;;;;;5043120;28;20044;-59
2023/09/02 10:59:06;;;;;;;8.00;4.43;;;22.70;99.60;;;;;;5043770;28;20098;-59
2023/09/02 11:01:49;;;;;;;5.80;4.05;;;22.80;99.90;;;;;;5047691;28;20062;-60
2023/09/02 11:04:40;;;;;;;5.97;4.32;;;23.10;99.90;;;;;;5029417;28;20424;-59
2023/09/02 11:07:18;;;;;;;9.25;4.80;;;23.30;99.90;;;;;;5030724;28;20040;-59
2023/09/02 11:10:03;;;;;;;7.53;3.70;;;23.50;99.60;;;;;;5028501;28;20045;-60
2023/09/02 11:12:29;;;;;;;6.13;3.50;;;23.50;99.30;;;;;;5017902;28;20048;-58
2023/09/02 11:15:15;;;;;;;6.15;3.08;;;23.10;99.40;;;;;;5064889;28;20055;-59
2023/09/02 11:17:41;;;;;;;7.15;3.58;;;23.10;99.90;;;;;;5039133;28;20325;-58
2023/09/02 11:20:15;;;;;;;9.05;4.50;;;22.90;99.90;;;;;;5065636;28;20040;-59
2023/09/02 11:22:59;;;;;;;6.15;3.65;;;22.70;99.90;;;;;;5046296;28;20163;-58
2023/09/02 11:25:31;;;;;;;7.10;3.58;;;22.70;99.60;;;;;;5046232;28;20052;-59
2023/09/02 11:27:59;;;;;;;5.80;3.05;;;22.80;99.90;;;;;;5025696;28;20052;-58
2023/09/02 11:30:26;;;;;;;3.90;2.22;;;23.00;99.90;;;;;;5032372;28;20124;-59
2023/09/02 11:32:52;;;;;;;4.55;3.00;;;23.10;99.90;;;;;;5025269;28;20045;-56
2023/09/02 11:35:27;;;;;;;5.30;2.35;;;23.00;99.90;;;;;;5040682;28;20326;-57
2023/09/02 11:37:53;;;;;;;4.90;2.92;;;22.90;99.90;;;;;;5046376;28;20048;-57
2023/09/02 11:40:21;;;;;;;4.53;2.65;;;22.70;99.90;;;;;;5047799;28;20036;-57
2023/09/02 11:42:59;;;;;;;5.20;2.63;;;22.60;99.90;;;;;;5027745;28;20242;-59
2023/09/02 11:45:30;;;;;;;6.35;2.47;;;22.80;99.90;;;;;;5046701;28;20040;-56
2023/09/02 11:47:56;;;;;;;5.40;2.55;;;22.90;99.80;;;;;;5048401;28;20072;-57
2023/09/02 11:50:22;;;;;;;4.43;2.60;;;23.10;99.90;;;;;;5047038;28;20399;-57
2023/09/02 11:52:52;;;;;;;5.85;2.55;;;23.40;99.80;;;;;;5031184;28;20036;-60
2023/09/02 11:55:18;;;;;;;4.65;2.42;;;23.30;98.90;;;;;;5038498;28;20530;-59
2023/09/02 11:57:45;;;;;;;5.97;2.50;;;23.00;99.00;;;;;;5046973;28;20041;-57
2023/09/02 12:00:29;;;;;;;2.90;1.75;;;22.70;99.00;;;;;;5045305;28;20048;-59
2023/09/02 12:02:58;;;;;;;;;;;22.80;99.40;;;;;;5039725;28;20407;-58
2023/09/02 12:05:24;;;;;;;5.13;2.00;;;23.00;99.20;;;;;;5046723;28;20379;-58
2023/09/02 12:07:51;;;;;;;3.63;2.10;;;23.30;99.50;;;;;;5045957;28;20042;-58
2023/09/02 12:10:24;;;;;;;2.67;2.10;;;23.50;99.00;;;;;;5040857;28;20075;-57
2023/09/02 12:12:50;;;;;;;4.07;1.60;;;23.70;98.50;;;;;;5043430;28;20067;-57
2023/09/02 12:15:17;;;;;;;3.97;1.60;;;23.50;98.60;;;;;;5028333;28;20052;-57
2023/09/02 12:17:44;;;;;;;3.35;2.40;;;23.40;98.80;;;;;;5040339;28;20503;-60
2023/09/02 12:20:12;;;;;;;4.40;1.90;;;23.50;98.80;;;;;;5043462;28;20508;-58
2023/09/02 12:22:40;;;;;;;4.07;2.00;;;23.60;99.10;;;;;;5042078;28;20333;-59
2023/09/02 12:25:15;;;;;;;2.38;1.75;;;23.50;98.80;;;;;;5042496;28;20143;-58
2023/09/02 12:27:41;;;;;;;4.95;2.15;;;23.60;98.90;;;;;;5022548;28;20502;-58
2023/09/02 12:30:07;;;;;;;4.35;2.25;;;23.60;98.80;;;;;;5044909;28;20290;-59
2023/09/02 12:32:33;;;;;;;3.80;1.73;;;23.70;98.50;;;;;;5045331;28;20048;-59
2023/09/02 12:34:59;;;;;;;4.05;2.20;;;23.70;98.60;;;;;;5031363;28;20102;-56
2023/09/02 12:37:25;;;;;;;3.90;1.90;;;23.70;98.20;;;;;;5029706;28;20048;-57
2023/09/02 12:39:51;;;;;;;5.30;1.80;;;23.80;98.10;;;;;;5066091;28;20037;-57
2023/09/02 12:42:33;;;;;;;5.72;1.75;;;24.10;98.40;;;;;;5044867;28;20496;-59
2023/09/02 12:45:00;;;;;;;3.28;1.75;;;24.20;97.80;;;;;;5027982;28;22377;-59